Time;durP1;ratioP1;P1;durP2;ratioP2;P2;SDS_P1;SDS_P2;PMS_P1;PMS_P2;Temp;Humidity;BMP_temperature;BMP_pressure;BME280_temperature;BME280_humidity;BME280_pressure;Samples;Min_cycle;Max_cycle;Signal;HPM_P1;HPM_P2
2022/12/21 00:01:54;;;;;;;3.40;1.90;;;20.80;62.60;;;;;;5008161;28;88247;-82
2022/12/21 00:04:20;;;;;;;5.35;2.03;;;20.70;62.80;;;;;;5007387;27;88836;-84
2022/12/21 00:06:45;;;;;;;3.15;1.92;;;20.80;62.90;;;;;;5006297;27;88593;-84
2022/12/21 00:09:13;;;;;;;3.03;1.63;;;20.80;62.90;;;;;;5006537;27;87508;-83
2022/12/21 00:11:39;;;;;;;4.30;1.80;;;20.70;62.70;;;;;;5005748;27;88154;-83
2022/12/21 00:14:05;;;;;;;3.25;1.70;;;20.70;62.80;;;;;;5007084;28;88256;-83
2022/12/21 00:16:37;;;;;;;4.30;2.15;;;20.70;63.00;;;;;;5006386;27;87185;-83
2022/12/21 00:19:03;;;;;;;4.35;1.70;;;20.70;63.10;;;;;;5006486;27;89306;-82
2022/12/21 00:21:31;;;;;;;3.10;1.80;;;20.70;63.10;;;;;;5007204;27;88141;-82
2022/12/21 00:23:58;;;;;;;5.75;1.67;;;20.60;62.90;;;;;;5006595;28;87886;-85
2022/12/21 00:26:32;;;;;;;2.83;1.80;;;20.60;62.90;;;;;;5007163;27;87426;-84
2022/12/21 00:28:58;;;;;;;2.38;1.50;;;20.70;62.70;;;;;;5006722;28;87632;-84
2022/12/21 00:31:27;;;;;;;3.05;1.67;;;20.60;62.80;;;;;;5006321;27;89418;-82
2022/12/21 00:33:53;;;;;;;4.80;1.90;;;20.60;62.70;;;;;;5006662;27;88175;-83
2022/12/21 00:36:21;;;;;;;2.70;1.70;;;20.60;62.80;;;;;;5006154;27;87851;-83
2022/12/21 00:38:47;;;;;;;3.78;1.80;;;20.60;62.70;;;;;;5006152;27;87240;-85
2022/12/21 00:41:16;;;;;;;2.67;1.85;;;20.60;62.80;;;;;;5006355;27;88518;-84
2022/12/21 00:43:43;;;;;;;4.07;1.80;;;20.60;62.80;;;;;;5005299;28;91164;-85
2022/12/21 00:46:15;;;;;;;4.50;2.20;;;20.60;63.00;;;;;;5006438;27;87018;-84
2022/12/21 00:48:41;;;;;;;2.60;1.45;;;20.50;62.80;;;;;;5006335;27;86558;-85
2022/12/21 00:51:10;;;;;;;4.18;1.70;;;20.50;62.90;;;;;;5006491;27;87692;-84
2022/12/21 00:53:36;;;;;;;3.07;1.77;;;20.50;63.70;;;;;;5006359;27;88272;-85
2022/12/21 00:56:03;;;;;;;2.83;1.60;;;20.50;62.80;;;;;;5006650;28;88346;-85
2022/12/21 00:58:30;;;;;;;3.28;2.05;;;20.50;62.90;;;;;;5006410;27;87491;-82
2022/12/21 01:00:57;;;;;;;2.60;1.67;;;20.50;62.90;;;;;;5006378;27;87999;-82
2022/12/21 01:03:24;;;;;;;4.32;2.05;;;20.50;63.20;;;;;;5005685;27;88187;-83
2022/12/21 01:05:51;;;;;;;2.38;1.38;;;20.50;62.90;;;;;;5005879;27;87818;-84
2022/12/21 01:08:18;;;;;;;3.20;1.52;;;20.50;62.90;;;;;;5005789;27;87803;-85
2022/12/21 01:10:44;;;;;;;2.53;1.58;;;20.40;62.80;;;;;;5005714;28;90179;-84
2022/12/21 01:13:10;;;;;;;2.90;1.80;;;20.40;63.00;;;;;;5006344;27;87946;-85
2022/12/21 01:15:41;;;;;;;2.92;1.58;;;20.40;62.80;;;;;;5006058;27;87353;-86
2022/12/21 01:18:06;;;;;;;2.65;1.80;;;20.40;63.00;;;;;;5005750;27;87581;-85
2022/12/21 01:20:32;;;;;;;1.92;1.33;;;20.40;63.00;;;;;;4986724;27;89883;-85
2022/12/21 01:22:57;;;;;;;2.72;1.58;;;20.40;62.90;;;;;;4985999;28;88977;-85
2022/12/21 01:25:23;;;;;;;2.58;1.42;;;20.40;62.90;;;;;;4986166;28;87316;-85
2022/12/21 01:27:49;;;;;;;2.03;1.42;;;20.40;63.00;;;;;;4985859;27;87507;-84
2022/12/21 01:30:15;;;;;;;2.42;1.70;;;20.40;63.10;;;;;;4985650;28;88059;-83
2022/12/21 01:32:41;;;;;;;2.78;1.60;;;20.40;63.00;;;;;;4986056;27;87340;-84
2022/12/21 01:35:07;;;;;;;3.13;1.75;;;20.40;63.00;;;;;;4986633;28;87644;-83
2022/12/21 01:37:32;;;;;;;2.47;1.63;;;20.30;63.00;;;;;;4985991;28;94493;-85
2022/12/21 01:39:58;;;;;;;2.78;1.70;;;20.30;62.80;;;;;;4985649;28;88229;-87
2022/12/21 01:42:24;;;;;;;3.33;1.80;;;20.30;62.90;;;;;;4986389;27;88255;-85
2022/12/21 01:45:22;;;;;;;2.70;1.50;;;20.30;63.10;;;;;;4985162;28;88437;-83
2022/12/21 01:48:12;;;;;;;3.60;1.60;;;20.30;63.20;;;;;;4981931;28;87723;-85
2022/12/21 01:50:56;;;;;;;1.73;1.40;;;20.30;63.30;;;;;;4982581;28;87778;-86
2022/12/21 01:53:25;;;;;;;3.08;1.92;;;20.30;63.20;;;;;;4982513;28;88519;-83
2022/12/21 01:55:53;;;;;;;;;;;20.20;63.20;;;;;;4984298;28;87317;-85
2022/12/21 01:58:22;;;;;;;2.42;1.50;;;20.30;63.30;;;;;;4984113;28;87012;-83
2022/12/21 02:00:47;;;;;;;2.17;1.50;;;20.30;63.30;;;;;;4982522;28;95312;-85
2022/12/21 02:03:18;;;;;;;2.75;1.80;;;20.20;63.20;;;;;;4982257;28;87927;-86
2022/12/21 02:05:53;;;;;;;2.88;1.77;;;20.20;63.10;;;;;;4983141;28;87206;-86
2022/12/21 02:08:19;;;;;;;2.65;1.38;;;20.20;63.20;;;;;;4981637;28;87838;-84
2022/12/21 02:10:46;;;;;;;2.33;1.60;;;20.20;63.20;;;;;;4987024;28;91740;-83
2022/12/21 02:13:14;;;;;;;2.00;1.52;;;20.20;63.20;;;;;;4982304;28;88594;-83
2022/12/21 02:15:54;;;;;;;3.55;1.92;;;20.20;63.10;;;;;;4981899;28;87280;-85
2022/12/21 02:18:41;;;;;;;2.90;1.75;;;20.20;63.00;;;;;;4982204;28;87936;-83
2022/12/21 02:21:30;;;;;;;2.20;1.55;;;20.10;63.10;;;;;;4981758;28;87738;-84
2022/12/21 02:24:28;;;;;;;2.67;1.48;;;20.20;63.20;;;;;;4983937;28;88054;-85
2022/12/21 02:27:17;;;;;;;2.60;1.40;;;20.20;63.10;;;;;;4962536;28;87392;-84
2022/12/21 02:29:45;;;;;;;3.35;1.55;;;20.20;63.10;;;;;;4962344;28;86987;-84
2022/12/21 02:32:21;;;;;;;3.80;1.70;;;20.10;63.20;;;;;;4962339;28;88648;-85
2022/12/21 02:35:12;;;;;;;1.85;1.30;;;20.10;63.00;;;;;;4963092;28;87865;-85
2022/12/21 02:37:43;;;;;;;1.63;1.20;;;20.10;63.00;;;;;;4963861;28;88428;-85
2022/12/21 02:40:20;;;;;;;2.58;1.70;;;20.10;63.10;;;;;;4965477;28;89843;-84
2022/12/21 02:46:04;;;;;;;2.55;1.65;;;20.10;63.10;;;;;;4965851;28;87495;-85
2022/12/21 02:48:43;;;;;;;1.85;1.25;;;20.10;63.00;;;;;;4965652;28;87577;-85
2022/12/21 02:51:14;;;;;;;1.33;1.10;;;20.10;63.10;;;;;;4966123;28;87355;-82
2022/12/21 02:53:41;;;;;;;2.38;1.55;;;20.10;63.20;;;;;;4964657;28;87991;-84
2022/12/21 02:56:15;;;;;;;2.70;1.58;;;20.00;63.10;;;;;;4966758;28;87847;-84
2022/12/21 02:58:41;;;;;;;1.83;1.20;;;20.00;63.20;;;;;;4966117;28;87892;-83
2022/12/21 03:01:47;;;;;;;3.38;1.63;;;20.00;63.10;;;;;;4965158;28;87740;-86
2022/12/21 03:04:19;;;;;;;2.17;1.40;;;20.00;63.00;;;;;;4965706;28;89573;-84
2022/12/21 03:07:01;;;;;;;2.42;1.40;;;20.00;63.30;;;;;;4965244;28;88833;-86
2022/12/21 03:10:08;;;;;;;2.70;1.55;;;20.00;63.10;;;;;;4965315;28;87217;-84
2022/12/21 03:12:57;;;;;;;2.65;1.60;;;20.00;63.00;;;;;;4926183;28;88021;-83
2022/12/21 03:15:46;;;;;;;1.98;1.40;;;20.00;63.10;;;;;;4892186;28;88691;-84
2022/12/21 03:18:19;;;;;;;1.90;1.40;;;20.00;63.20;;;;;;4899318;28;87755;-86
2022/12/21 03:21:11;;;;;;;1.70;1.30;;;20.00;63.30;;;;;;4895372;28;87051;-85
2022/12/21 03:23:44;;;;;;;2.42;1.65;;;20.00;63.40;;;;;;4896436;28;87730;-84
2022/12/21 03:26:24;;;;;;;3.03;1.70;;;20.00;63.50;;;;;;4896837;28;87441;-83
2022/12/21 03:28:52;;;;;;;1.67;1.50;;;19.90;63.40;;;;;;4894870;28;87741;-84
2022/12/21 03:31:22;;;;;;;1.65;1.35;;;19.90;63.30;;;;;;4887200;28;95284;-85
2022/12/21 03:33:56;;;;;;;4.15;1.65;;;19.90;63.20;;;;;;4892970;28;87573;-85
2022/12/21 03:36:28;;;;;;;2.33;1.33;;;19.90;63.50;;;;;;4858084;28;88281;-83
2022/12/21 03:38:59;;;;;;;2.03;1.48;;;19.90;63.30;;;;;;4849106;29;91044;-84
2022/12/21 03:41:31;;;;;;;2.15;1.38;;;19.90;63.30;;;;;;4849871;29;87944;-85
2022/12/21 03:44:01;;;;;;;2.05;1.63;;;19.90;63.50;;;;;;4850396;29;87066;-84
2022/12/21 03:46:31;;;;;;;;;;;19.90;63.10;;;;;;4849442;29;88374;-85
2022/12/21 03:49:12;;;;;;;2.28;1.73;;;19.90;63.30;;;;;;4897551;28;87566;-84
2022/12/21 03:51:45;;;;;;;2.53;1.40;;;19.90;63.10;;;;;;4912207;28;87568;-85
2022/12/21 03:54:34;;;;;;;1.77;1.35;;;19.90;63.20;;;;;;4956651;28;87748;-83
2022/12/21 03:57:00;;;;;;;2.00;1.35;;;19.80;63.10;;;;;;4967018;28;89564;-85
2022/12/21 03:59:26;;;;;;;2.45;1.50;;;19.80;63.10;;;;;;4967238;28;88368;-83
2022/12/21 04:02:11;;;;;;;2.28;1.55;;;19.80;63.10;;;;;;4968677;28;87430;-85
2022/12/21 04:05:02;;;;;;;2.08;1.30;;;19.90;63.20;;;;;;4967098;28;90989;-85
2022/12/21 04:07:30;;;;;;;1.15;1.00;;;19.80;63.20;;;;;;4967872;28;88472;-84
2022/12/21 04:10:09;;;;;;;1.98;1.60;;;19.80;63.30;;;;;;4967185;28;87431;-85
2022/12/21 04:12:41;;;;;;;2.13;1.27;;;19.80;63.30;;;;;;4966995;28;87316;-86
2022/12/21 04:15:12;;;;;;;2.72;1.67;;;19.80;63.20;;;;;;4967554;28;86680;-84
2022/12/21 04:17:38;;;;;;;1.92;1.40;;;19.80;63.50;;;;;;4966650;28;87776;-83
2022/12/21 04:20:06;;;;;;;2.00;1.38;;;19.80;63.40;;;;;;4995651;28;87760;-84
2022/12/21 04:28:07;;;;;;;1.60;1.40;;;19.80;63.30;;;;;;5006589;27;87327;-84
2022/12/21 04:30:43;;;;;;;;;;;19.80;63.20;;;;;;5007791;27;87889;-83
2022/12/21 04:33:11;;;;;;;2.08;1.27;;;19.80;63.00;;;;;;5008268;27;87347;-83
2022/12/21 04:37:30;;;;;;;2.00;1.40;;;19.80;63.20;;;;;;5006201;27;87061;-82
2022/12/21 04:38:23;;;;;;;1.63;1.40;;;19.80;63.40;;;;;;5006389;27;89089;-84
2022/12/21 04:40:53;;;;;;;2.13;1.40;;;19.80;63.10;;;;;;5007495;28;88036;-83
2022/12/21 04:43:19;;;;;;;2.30;1.35;;;19.70;63.20;;;;;;5007136;27;87315;-87
2022/12/21 04:45:44;;;;;;;2.08;1.35;;;19.70;63.10;;;;;;5006140;27;88511;-84
2022/12/21 04:48:10;;;;;;;1.92;1.40;;;19.70;63.30;;;;;;5005708;27;89442;-84
2022/12/21 04:50:38;;;;;;;2.30;1.48;;;19.70;63.30;;;;;;5005743;27;89242;-84
2022/12/21 04:53:03;;;;;;;1.95;1.30;;;19.70;63.40;;;;;;5006482;28;87060;-85
2022/12/21 04:55:29;;;;;;;1.80;1.20;;;19.70;63.40;;;;;;5006724;27;87631;-83
2022/12/21 04:57:54;;;;;;;1.63;1.27;;;19.70;63.30;;;;;;5005493;27;87788;-83
2022/12/21 05:00:20;;;;;;;1.80;1.25;;;19.70;63.40;;;;;;5006617;27;87263;-83
2022/12/21 05:02:46;;;;;;;1.55;1.08;;;19.70;63.50;;;;;;5006818;27;87406;-85
2022/12/21 05:05:11;;;;;;;1.60;1.20;;;19.70;63.30;;;;;;5006372;27;87138;-84
2022/12/21 05:07:37;;;;;;;2.10;1.35;;;19.70;63.30;;;;;;5006427;28;88335;-85
2022/12/21 05:10:03;;;;;;;2.15;1.40;;;19.70;63.30;;;;;;5005936;28;94017;-85
2022/12/21 05:12:28;;;;;;;2.50;1.63;;;19.70;63.30;;;;;;5006065;27;87828;-84
2022/12/21 05:14:54;;;;;;;1.45;1.20;;;19.60;63.40;;;;;;5006283;27;88460;-83
2022/12/21 05:17:20;;;;;;;3.13;1.63;;;19.60;63.40;;;;;;5005419;27;88511;-84
2022/12/21 05:19:46;;;;;;;2.17;1.38;;;19.60;63.50;;;;;;5006259;28;88181;-86
2022/12/21 05:22:18;;;;;;;1.48;1.15;;;19.60;63.50;;;;;;5005852;27;87509;-85
2022/12/21 05:24:44;;;;;;;1.67;1.10;;;19.60;63.40;;;;;;4993631;28;87696;-85
2022/12/21 05:27:11;;;;;;;2.40;1.40;;;19.60;63.40;;;;;;5005192;27;88035;-83
2022/12/21 05:29:37;;;;;;;1.65;1.35;;;19.60;63.30;;;;;;5005610;27;88127;-83
2022/12/21 05:32:03;;;;;;;1.20;1.05;;;19.60;63.10;;;;;;5005627;28;87470;-85
2022/12/21 05:34:28;;;;;;;1.95;1.50;;;19.60;63.30;;;;;;5005010;27;87112;-84
2022/12/21 05:36:54;;;;;;;1.35;1.15;;;19.60;63.10;;;;;;5004945;27;89162;-84
2022/12/21 05:39:19;;;;;;;2.00;1.38;;;19.60;63.20;;;;;;5005885;27;88714;-86
2022/12/21 05:41:45;;;;;;;2.17;1.58;;;19.60;63.10;;;;;;5007670;27;87713;-85
2022/12/21 05:44:10;;;;;;;2.17;1.30;;;19.60;62.70;;;;;;5005706;27;87074;-85
2022/12/21 05:46:36;;;;;;;2.30;1.38;;;19.70;62.20;;;;;;5005714;28;87685;-85
2022/12/21 05:49:02;;;;;;;4.20;1.40;;;19.70;62.70;;;;;;5005052;27;88021;-84
2022/12/21 05:51:28;;;;;;;2.35;1.40;;;19.70;62.50;;;;;;5006233;27;87823;-81
2022/12/21 05:53:53;;;;;;;2.25;1.58;;;19.70;62.80;;;;;;5006729;27;88175;-84
2022/12/21 05:56:19;;;;;;;3.65;2.17;;;19.70;62.90;;;;;;5007307;27;88402;-83
2022/12/21 05:58:45;;;;;;;2.00;1.50;;;19.60;62.40;;;;;;5007397;28;87243;-84
2022/12/21 06:01:12;;;;;;;2.83;1.75;;;19.60;62.70;;;;;;5004752;27;88791;-82
2022/12/21 06:03:39;;;;;;;2.35;1.60;;;19.60;62.70;;;;;;5005589;27;87908;-83
2022/12/21 06:06:14;;;;;;;3.20;1.85;;;19.70;62.80;;;;;;5005749;27;88033;-82
2022/12/21 06:08:41;;;;;;;4.10;1.90;;;19.70;63.00;;;;;;5005291;27;88218;-82
2022/12/21 06:11:11;;;;;;;2.78;1.63;;;19.60;63.10;;;;;;5005014;28;87608;-81
2022/12/21 06:13:37;;;;;;;2.55;1.73;;;19.60;63.30;;;;;;5003899;28;89526;-82
2022/12/21 06:16:08;;;;;;;3.28;1.70;;;19.60;63.30;;;;;;5004115;27;87271;-83
2022/12/21 06:18:34;;;;;;;2.17;1.88;;;19.60;63.50;;;;;;5005447;27;88798;-83
2022/12/21 06:21:00;;;;;;;2.55;1.58;;;19.50;63.60;;;;;;5005455;27;88196;-83
2022/12/21 06:23:25;;;;;;;1.65;1.55;;;19.60;63.50;;;;;;5005846;27;87612;-84
2022/12/21 06:25:59;;;;;;;2.42;1.65;;;19.60;63.40;;;;;;5005597;28;88968;-82
2022/12/21 06:28:26;;;;;;;3.20;1.60;;;19.50;63.30;;;;;;5005575;27;89288;-82
2022/12/21 06:30:55;;;;;;;2.92;1.58;;;19.50;63.50;;;;;;5006284;27;87189;-84
2022/12/21 06:33:22;;;;;;;3.72;1.65;;;19.50;63.30;;;;;;5004582;27;88403;-82
2022/12/21 06:35:54;;;;;;;1.55;1.33;;;19.50;63.30;;;;;;5005366;27;87648;-83
2022/12/21 06:38:20;;;;;;;2.20;1.52;;;19.50;63.30;;;;;;5005536;27;88421;-82
2022/12/21 06:40:56;;;;;;;2.22;1.45;;;19.50;63.30;;;;;;5006428;28;87177;-82
2022/12/21 06:43:22;;;;;;;1.63;1.40;;;19.50;63.30;;;;;;5006047;27;87011;-82
2022/12/21 06:46:02;;;;;;;3.92;2.15;;;19.50;63.50;;;;;;5004415;27;87369;-82
2022/12/21 06:48:29;;;;;;;2.88;1.80;;;19.50;63.50;;;;;;4994981;28;90428;-83
2022/12/21 06:50:57;;;;;;;2.47;1.83;;;19.40;63.40;;;;;;5004814;27;88150;-82
2022/12/21 06:53:25;;;;;;;1.70;1.50;;;19.50;63.30;;;;;;5005642;27;87667;-83
2022/12/21 06:55:59;;;;;;;3.88;1.75;;;19.40;63.40;;;;;;5006209;28;86963;-85
2022/12/21 06:58:25;;;;;;;3.47;1.60;;;19.40;63.30;;;;;;5004999;27;87488;-83
2022/12/21 07:00:50;;;;;;;2.90;1.65;;;19.40;63.30;;;;;;5005134;27;87488;-84
2022/12/21 07:03:16;;;;;;;2.10;1.65;;;19.40;63.60;;;;;;5004886;27;87688;-82
2022/12/21 07:05:42;;;;;;;2.20;1.70;;;19.50;63.00;;;;;;5004731;27;88128;-83
2022/12/21 07:08:07;;;;;;;2.45;1.48;;;19.40;63.10;;;;;;5005719;28;89038;-84
2022/12/21 07:10:33;;;;;;;2.85;1.40;;;19.50;63.10;;;;;;5005889;28;87538;-83
2022/12/21 07:12:59;;;;;;;2.67;2.00;;;19.50;63.00;;;;;;5004907;27;87645;-81
2022/12/21 07:15:25;;;;;;;1.45;1.33;;;19.60;62.80;;;;;;5004212;27;89505;-81
2022/12/21 07:17:51;;;;;;;1.95;1.40;;;19.60;62.80;;;;;;5005003;27;88676;-83
2022/12/21 07:20:17;;;;;;;1.63;1.30;;;19.60;62.80;;;;;;5004531;27;88048;-83
2022/12/21 07:22:42;;;;;;;6.05;1.80;;;19.60;62.80;;;;;;5008305;28;88273;-83
2022/12/21 07:25:08;;;;;;;1.83;1.48;;;19.60;62.70;;;;;;5008363;27;88177;-83
2022/12/21 07:27:34;;;;;;;2.13;1.60;;;19.60;62.80;;;;;;5021909;28;87595;-84
2022/12/21 07:29:59;;;;;;;2.13;1.60;;;19.60;62.80;;;;;;5008327;27;87457;-84
2022/12/21 07:32:25;;;;;;;2.13;1.30;;;19.60;63.00;;;;;;5008970;27;86439;-84
2022/12/21 07:34:50;;;;;;;3.88;1.55;;;19.60;62.60;;;;;;5008423;28;88972;-82
2022/12/21 07:37:16;;;;;;;4.55;1.67;;;19.70;62.70;;;;;;5008160;27;87700;-83
2022/12/21 07:39:42;;;;;;;3.60;2.28;;;19.80;62.20;;;;;;5006486;27;89219;-84
2022/12/21 07:42:07;;;;;;;1.55;1.33;;;19.90;60.80;;;;;;5007967;27;88081;-82
2022/12/21 07:44:33;;;;;;;5.80;1.90;;;20.20;60.90;;;;;;5013831;27;88165;-84
2022/12/21 07:46:58;;;;;;;2.10;1.48;;;20.50;60.40;;;;;;5011590;28;87512;-84
2022/12/21 07:49:24;;;;;;;4.32;1.70;;;20.70;59.90;;;;;;5008756;27;87426;-83
2022/12/21 07:51:49;;;;;;;5.00;1.88;;;20.90;59.30;;;;;;5007375;27;87567;-86
2022/12/21 07:54:15;;;;;;;4.75;2.80;;;21.00;58.80;;;;;;5010229;27;88059;-82
2022/12/21 07:56:41;;;;;;;15.93;4.03;;;21.00;58.70;;;;;;5008700;27;88285;-84
2022/12/21 07:59:06;;;;;;;13.00;3.85;;;21.00;58.80;;;;;;5007851;28;87299;-87
2022/12/21 08:01:32;;;;;;;8.38;3.25;;;20.90;58.90;;;;;;4995474;28;90545;-85
2022/12/21 08:03:58;;;;;;;13.10;3.22;;;21.00;59.20;;;;;;5007229;27;88586;-85
2022/12/21 08:06:24;;;;;;;8.70;2.63;;;21.00;59.20;;;;;;5008598;27;88729;-84
2022/12/21 08:08:50;;;;;;;9.95;2.95;;;20.90;59.30;;;;;;5007451;27;87643;-85
2022/12/21 08:11:18;;;;;;;9.68;3.00;;;20.90;59.60;;;;;;5007519;27;87155;-83
2022/12/21 08:13:45;;;;;;;8.48;3.55;;;20.80;59.60;;;;;;5008408;28;88544;-84
2022/12/21 08:16:14;;;;;;;10.18;2.92;;;20.80;59.70;;;;;;5007337;27;88399;-84
2022/12/21 08:18:40;;;;;;;;;;;20.70;59.90;;;;;;5007826;27;87414;-83
2022/12/21 08:21:06;;;;;;;10.43;3.17;;;20.70;60.30;;;;;;5009343;27;87486;-82
2022/12/21 08:23:32;;;;;;;7.55;2.45;;;20.80;59.90;;;;;;5004721;27;88018;-86
2022/12/21 08:26:06;;;;;;;13.18;3.60;;;20.80;60.00;;;;;;5007663;28;87650;-85
2022/12/21 08:28:32;;;;;;;11.20;3.63;;;20.70;60.40;;;;;;5005590;28;88301;-86
2022/12/21 08:31:06;;;;;;;13.73;3.08;;;20.70;60.00;;;;;;5006781;27;88270;-83
2022/12/21 08:33:32;;;;;;;9.45;3.13;;;20.70;60.20;;;;;;5004769;27;88161;-86
2022/12/21 08:35:58;;;;;;;12.20;3.10;;;20.70;60.70;;;;;;5007845;27;88403;-85
2022/12/21 08:38:24;;;;;;;9.32;3.35;;;20.60;61.00;;;;;;5007810;27;87701;-84
2022/12/21 08:40:51;;;;;;;11.55;3.47;;;20.60;61.70;;;;;;5007234;28;88163;-84
2022/12/21 08:43:17;;;;;;;11.23;3.50;;;20.50;61.50;;;;;;5029539;27;88061;-83
2022/12/21 08:45:43;;;;;;;16.48;3.75;;;20.50;61.40;;;;;;5006845;27;87804;-87
2022/12/21 08:48:09;;;;;;;9.85;3.50;;;20.60;61.10;;;;;;5018358;27;87611;-86
2022/12/21 08:50:35;;;;;;;8.45;3.65;;;20.60;61.20;;;;;;5011254;27;87438;-85
2022/12/21 08:53:01;;;;;;;9.43;3.25;;;20.50;61.50;;;;;;5006917;28;89003;-84
2022/12/21 08:55:26;;;;;;;10.13;3.70;;;20.50;61.70;;;;;;5007966;27;88269;-84
2022/12/21 08:57:52;;;;;;;10.95;3.67;;;20.40;62.00;;;;;;5017268;27;86924;-85
2022/12/21 09:00:18;;;;;;;12.38;3.72;;;20.40;61.90;;;;;;4965256;27;88103;-85
2022/12/21 09:02:43;;;;;;;13.93;4.10;;;20.50;62.10;;;;;;5027909;27;88576;-86
2022/12/21 09:05:10;;;;;;;9.77;3.70;;;20.40;62.20;;;;;;5006799;27;88524;-86
2022/12/21 09:07:35;;;;;;;13.85;4.32;;;20.40;62.70;;;;;;5007685;28;87537;-87
2022/12/21 09:10:01;;;;;;;12.75;3.75;;;20.40;62.90;;;;;;5006748;27;86835;-85
2022/12/21 09:12:27;;;;;;;9.95;3.80;;;20.40;63.10;;;;;;5005965;27;88228;-86
2022/12/21 09:14:53;;;;;;;10.43;3.63;;;20.40;63.10;;;;;;5006406;27;88562;-87
2022/12/21 09:17:18;;;;;;;14.68;3.83;;;20.40;62.80;;;;;;5005634;27;88020;-86
2022/12/21 09:19:44;;;;;;;12.07;4.57;;;20.50;62.40;;;;;;5007588;28;87362;-84
2022/12/21 09:22:09;;;;;;;11.57;3.80;;;20.60;62.00;;;;;;5007804;27;88085;-86
2022/12/21 09:24:35;;;;;;;10.20;3.67;;;20.60;61.90;;;;;;5006965;27;87321;-85
2022/12/21 09:27:01;;;;;;;11.02;4.18;;;20.50;62.10;;;;;;5007900;27;87735;-86
2022/12/21 09:29:26;;;;;;;7.85;3.63;;;20.50;62.00;;;;;;5007064;27;87347;-85
2022/12/21 09:31:52;;;;;;;11.70;4.22;;;20.50;62.30;;;;;;5007213;28;88618;-84
2022/12/21 09:34:18;;;;;;;11.70;3.90;;;20.50;61.90;;;;;;5006000;27;87409;-87
2022/12/21 09:36:44;;;;;;;10.77;3.80;;;20.60;62.20;;;;;;5007624;27;87758;-85
2022/12/21 09:39:10;;;;;;;9.32;3.90;;;20.60;61.80;;;;;;5006286;27;87183;-83
2022/12/21 09:42:14;;;;;;;8.45;3.78;;;20.70;61.80;;;;;;5006175;27;89074;-83
2022/12/21 09:45:01;;;;;;;10.60;3.83;;;20.70;61.60;;;;;;5005606;27;88035;-83
2022/12/21 09:47:40;;;;;;;12.32;3.35;;;20.80;61.20;;;;;;5006891;27;87304;-85
2022/12/21 09:50:14;;;;;;;10.13;3.30;;;20.90;61.50;;;;;;5007758;28;86894;-85
2022/12/21 09:52:46;;;;;;;11.88;4.00;;;21.00;60.90;;;;;;5006058;28;92624;-85
2022/12/21 09:55:17;;;;;;;7.85;3.70;;;21.00;61.00;;;;;;5006621;27;88658;-87
2022/12/21 09:57:44;;;;;;;8.27;3.70;;;20.90;60.90;;;;;;5006426;27;87201;-87
2022/12/21 10:00:19;;;;;;;9.20;3.88;;;21.00;61.30;;;;;;5007534;27;86744;-85
2022/12/21 10:03:02;;;;;;;15.18;3.80;;;20.90;61.10;;;;;;5006291;27;88330;-86
2022/12/21 10:06:02;;;;;;;11.13;4.00;;;21.00;61.30;;;;;;5006354;27;87938;-85
2022/12/21 10:08:51;;;;;;;8.30;3.50;;;20.90;61.20;;;;;;5005614;27;90600;-85
2022/12/21 10:11:48;;;;;;;10.05;3.70;;;20.90;61.30;;;;;;5005241;27;87832;-85
2022/12/21 10:14:29;;;;;;;10.02;3.60;;;20.80;61.40;;;;;;5006128;27;89170;-86
2022/12/21 10:17:05;;;;;;;8.75;3.22;;;20.80;61.50;;;;;;5006776;28;87966;-84
2022/12/21 10:20:08;;;;;;;9.68;4.05;;;20.80;61.70;;;;;;5006307;27;87452;-85
2022/12/21 10:22:42;;;;;;;9.05;3.63;;;20.70;61.30;;;;;;5006185;28;91936;-85
2022/12/21 10:25:18;;;;;;;9.75;3.75;;;20.70;61.60;;;;;;5022100;27;90067;-87
2022/12/21 10:28:05;;;;;;;8.35;3.10;;;20.80;61.70;;;;;;5023411;28;88119;-86
2022/12/21 10:30:32;;;;;;;8.38;3.33;;;20.80;61.60;;;;;;5024248;28;87060;-83
2022/12/21 10:32:59;;;;;;;8.50;3.40;;;20.90;61.40;;;;;;5005309;28;88057;-84
2022/12/21 10:35:35;;;;;;;7.72;3.08;;;21.00;61.10;;;;;;5023593;28;88967;-87
2022/12/21 10:38:01;;;;;;;8.60;3.10;;;21.20;61.00;;;;;;5023807;28;88245;-84
2022/12/21 10:40:31;;;;;;;8.00;3.20;;;21.30;60.80;;;;;;5023295;28;87932;-86
2022/12/21 10:42:58;;;;;;;5.82;2.38;;;21.40;60.40;;;;;;5023568;28;88478;-84
2022/12/21 10:45:24;;;;;;;7.95;3.33;;;21.50;60.20;;;;;;5023483;28;88778;-85
2022/12/21 10:47:50;;;;;;;12.05;3.05;;;21.50;60.10;;;;;;5023022;28;88025;-83
2022/12/21 10:50:24;;;;;;;7.00;2.78;;;21.50;59.90;;;;;;5023320;28;87255;-83
2022/12/21 10:52:51;;;;;;;10.73;3.45;;;21.50;59.90;;;;;;5024331;28;87300;-84
2022/12/21 10:55:17;;;;;;;8.07;3.00;;;21.50;59.90;;;;;;5020265;28;87505;-83
2022/12/21 10:57:44;;;;;;;7.93;2.80;;;21.50;60.10;;;;;;5007570;27;90425;-84
2022/12/21 11:00:31;;;;;;;6.50;2.95;;;21.50;60.00;;;;;;5008699;27;88746;-84
2022/12/21 11:03:02;;;;;;;5.22;2.42;;;21.40;60.10;;;;;;5009623;27;87554;-85
2022/12/21 11:05:36;;;;;;;6.22;2.78;;;21.40;60.20;;;;;;5008766;27;87691;-84
2022/12/21 11:08:16;;;;;;;5.97;2.85;;;21.40;60.50;;;;;;5010240;28;88086;-85
2022/12/21 11:10:54;;;;;;;11.68;3.50;;;21.30;60.50;;;;;;5009109;28;87536;-85
2022/12/21 11:13:22;;;;;;;10.70;3.53;;;21.30;60.70;;;;;;5009263;27;87202;-85
2022/12/21 11:16:01;;;;;;;8.57;3.40;;;21.20;59.70;;;;;;5008850;27;88160;-83
2022/12/21 11:18:32;;;;;;;7.65;3.10;;;21.20;60.00;;;;;;5009505;27;87520;-83
2022/12/21 11:21:00;;;;;;;10.73;3.30;;;21.20;60.40;;;;;;5009258;27;87422;-84
2022/12/21 11:23:26;;;;;;;9.80;3.40;;;21.20;60.50;;;;;;5007193;27;88365;-83
2022/12/21 11:25:54;;;;;;;8.98;3.30;;;21.20;60.50;;;;;;5008170;28;89119;-83
2022/12/21 11:28:21;;;;;;;11.15;3.47;;;21.30;60.30;;;;;;5008043;27;88166;-84
2022/12/21 11:30:53;;;;;;;6.95;2.55;;;21.30;60.20;;;;;;5008418;27;87113;-83
2022/12/21 11:33:20;;;;;;;6.55;2.97;;;21.40;60.30;;;;;;5008690;27;87980;-84
2022/12/21 11:36:15;;;;;;;8.98;3.17;;;21.50;60.40;;;;;;5008306;27;89031;-83
2022/12/21 11:38:41;;;;;;;8.23;2.75;;;21.70;60.20;;;;;;5007578;27;88275;-84
2022/12/21 11:41:27;;;;;;;8.00;3.10;;;21.80;60.00;;;;;;5008605;28;87369;-84
2022/12/21 11:43:54;;;;;;;7.15;2.10;;;21.90;59.90;;;;;;5008578;28;91672;-84
2022/12/21 11:46:48;;;;;;;7.18;2.95;;;22.00;59.90;;;;;;5007940;27;87950;-84
2022/12/21 11:49:36;;;;;;;6.60;2.67;;;22.10;59.60;;;;;;5007824;27;88401;-82
2022/12/21 11:52:11;;;;;;;8.80;2.87;;;22.20;59.60;;;;;;5007644;27;87867;-85
2022/12/21 11:54:51;;;;;;;8.65;2.38;;;22.20;59.60;;;;;;5006881;27;87339;-82
2022/12/21 11:57:23;;;;;;;5.70;2.22;;;22.20;59.60;;;;;;5007508;27;87651;-85
2022/12/21 11:59:51;;;;;;;9.48;3.08;;;22.30;59.60;;;;;;5007329;27;88758;-84
2022/12/21 12:03:00;;;;;;;7.97;3.03;;;22.20;59.80;;;;;;5008123;27;87493;-82
2022/12/21 12:05:42;;;;;;;9.68;2.85;;;22.20;59.60;;;;;;4964529;28;87726;-83
2022/12/21 12:08:23;;;;;;;5.32;3.10;;;22.20;59.20;;;;;;4965297;28;88149;-83
2022/12/21 12:11:08;;;;;;;7.07;2.70;;;22.20;59.20;;;;;;4964966;28;92331;-82
2022/12/21 12:14:03;;;;;;;9.32;3.05;;;22.20;59.20;;;;;;4965018;28;87635;-83
2022/12/21 12:17:08;;;;;;;12.00;3.22;;;22.10;59.50;;;;;;4965755;28;87622;-84
2022/12/21 12:19:51;;;;;;;11.88;2.80;;;22.20;59.00;;;;;;4893304;28;92501;-83
2022/12/21 12:22:35;;;;;;;10.48;3.22;;;22.10;59.20;;;;;;4893070;28;89564;-84
2022/12/21 12:25:22;;;;;;;9.48;2.80;;;22.10;59.10;;;;;;4894746;28;87609;-84
2022/12/21 12:27:54;;;;;;;11.55;3.22;;;22.10;59.50;;;;;;4894446;28;87276;-83
2022/12/21 12:30:23;;;;;;;10.65;2.72;;;22.10;59.80;;;;;;4896933;28;88122;-83
2022/12/21 12:33:05;;;;;;;8.57;2.93;;;22.10;59.80;;;;;;4894866;28;88031;-84
2022/12/21 12:35:41;;;;;;;9.93;3.13;;;22.00;60.00;;;;;;4896058;28;88450;-85
2022/12/21 12:38:30;;;;;;;16.00;3.25;;;22.00;59.90;;;;;;4895165;28;87874;-85
2022/12/21 12:41:27;;;;;;;16.80;4.10;;;22.00;60.40;;;;;;4897171;28;92145;-84
2022/12/21 12:43:59;;;;;;;11.18;3.22;;;21.90;60.40;;;;;;4897058;28;92127;-83
2022/12/21 12:46:30;;;;;;;13.48;2.88;;;21.90;60.60;;;;;;4913202;28;88362;-84
2022/12/21 12:49:10;;;;;;;13.38;3.42;;;21.90;60.70;;;;;;4913689;28;87481;-85
2022/12/21 12:52:04;;;;;;;10.95;3.35;;;21.80;60.70;;;;;;4914609;28;87668;-85
2022/12/21 12:54:48;;;;;;;7.22;2.65;;;21.80;61.20;;;;;;4916312;28;87746;-85
2022/12/21 12:57:21;;;;;;;10.27;2.97;;;21.80;61.20;;;;;;4977851;28;87916;-84
2022/12/21 13:00:09;;;;;;;12.32;2.33;;;21.80;60.90;;;;;;4984733;28;87609;-85
2022/12/21 13:03:09;;;;;;;11.52;3.05;;;21.80;61.00;;;;;;4966481;28;90062;-84
2022/12/21 13:05:53;;;;;;;12.75;3.30;;;21.90;60.60;;;;;;4983092;28;88273;-85
2022/12/21 13:08:45;;;;;;;7.63;3.08;;;22.00;60.80;;;;;;4983176;28;87360;-85
2022/12/21 13:11:22;;;;;;;4.28;2.20;;;21.90;60.70;;;;;;4966320;28;89125;-84
2022/12/21 13:14:16;;;;;;;9.93;3.05;;;22.00;60.70;;;;;;4983629;28;88950;-85
2022/12/21 13:16:52;;;;;;;10.55;2.80;;;21.90;61.00;;;;;;4983304;28;93622;-85
2022/12/21 13:19:20;;;;;;;8.25;3.33;;;21.90;61.40;;;;;;4983039;28;87318;-84